createdAt,value
2018-12-26T00:00:54.727Z,35.70
2018-12-26T00:03:23.287Z,40.90
2018-12-26T00:05:52.124Z,35.47
2018-12-26T00:08:20.776Z,38.23
2018-12-26T00:10:49.452Z,35.23
2018-12-26T00:13:18.344Z,35.90
2018-12-26T00:15:47.470Z,42.33
2018-12-26T00:18:16.460Z,38.40
2018-12-26T00:20:45.147Z,36.27
2018-12-26T00:23:13.800Z,34.70
2018-12-26T00:25:42.447Z,39.97
2018-12-26T00:28:11.589Z,41.40
2018-12-26T00:30:40.488Z,37.90
2018-12-26T00:33:09.156Z,38.40
2018-12-26T00:35:37.854Z,40.87
2018-12-26T00:38:06.979Z,37.00
2018-12-26T00:40:35.669Z,43.00
2018-12-26T00:43:04.810Z,43.33
2018-12-26T00:45:33.879Z,42.07
2018-12-26T00:48:02.936Z,48.10
2018-12-26T00:50:31.981Z,44.60
2018-12-26T00:53:00.976Z,42.37
2018-12-26T00:55:29.524Z,46.40
2018-12-26T00:57:58.295Z,43.77
2018-12-26T01:00:27.410Z,40.50
2018-12-26T01:02:56.006Z,41.40
2018-12-26T01:05:24.784Z,40.40
2018-12-26T01:07:53.692Z,40.50
2018-12-26T01:10:22.697Z,46.33
2018-12-26T01:12:51.308Z,41.80
2018-12-26T01:15:19.949Z,40.40
2018-12-26T01:17:48.713Z,42.70
2018-12-26T01:20:17.277Z,41.30
2018-12-26T01:22:46.048Z,41.80
2018-12-26T01:25:14.857Z,38.07
2018-12-26T01:27:44.055Z,39.10
2018-12-26T01:30:12.939Z,41.40
2018-12-26T01:32:41.888Z,44.27
2018-12-26T01:35:10.707Z,44.47
2018-12-26T01:37:39.526Z,44.20
2018-12-26T01:40:10.526Z,36.80
2018-12-26T01:42:39.804Z,39.20
2018-12-26T01:45:08.726Z,40.93
2018-12-26T01:47:37.522Z,41.47
2018-12-26T01:50:07.584Z,36.90
2018-12-26T01:52:36.155Z,41.97
2018-12-26T01:55:05.391Z,40.67
2018-12-26T01:57:34.296Z,38.77
2018-12-26T02:00:03.553Z,45.67
2018-12-26T02:02:32.382Z,35.77
2018-12-26T02:05:00.926Z,44.53
2018-12-26T02:07:29.449Z,44.37
2018-12-26T02:09:58.138Z,56.90
2018-12-26T02:12:27.119Z,37.57
2018-12-26T02:14:55.858Z,42.90
2018-12-26T02:17:24.790Z,38.30
2018-12-26T02:19:54.083Z,37.03
2018-12-26T02:22:22.926Z,44.83
2018-12-26T02:24:52.034Z,45.17
2018-12-26T02:27:22.698Z,35.97
2018-12-26T02:29:51.422Z,40.77
2018-12-26T02:32:20.249Z,37.20
2018-12-26T02:34:49.537Z,44.60
2018-12-26T02:37:18.849Z,42.17
2018-12-26T02:39:47.699Z,44.13
2018-12-26T02:42:16.768Z,43.00
2018-12-26T02:44:46.044Z,41.43
2018-12-26T02:47:15.282Z,39.20
2018-12-26T02:49:44.694Z,40.13
2018-12-26T02:52:13.606Z,41.13
2018-12-26T02:54:42.341Z,42.50
2018-12-26T02:57:11.272Z,43.03
2018-12-26T02:59:40.374Z,42.10
2018-12-26T03:02:09.359Z,44.70
2018-12-26T03:04:38.001Z,47.53
2018-12-26T03:07:07.190Z,39.67
2018-12-26T03:09:36.146Z,39.07
2018-12-26T03:12:05.007Z,45.63
2018-12-26T03:14:33.930Z,43.07
2018-12-26T03:17:02.728Z,39.87
2018-12-26T03:19:31.922Z,48.30
2018-12-26T03:22:01.079Z,43.40
2018-12-26T03:24:30.017Z,41.80
2018-12-26T03:26:59.182Z,44.73
2018-12-26T03:29:28.082Z,44.10
2018-12-26T03:31:56.941Z,43.07
2018-12-26T03:34:26.290Z,47.33
2018-12-26T03:36:55.147Z,49.77
2018-12-26T03:39:23.992Z,41.70
2018-12-26T03:41:53.283Z,42.07
2018-12-26T03:44:23.206Z,44.07
2018-12-26T03:46:52.550Z,45.67
2018-12-26T03:49:21.198Z,48.83
2018-12-26T03:51:49.843Z,45.57
2018-12-26T03:54:18.514Z,50.27
2018-12-26T03:56:47.719Z,44.30
2018-12-26T03:59:16.453Z,40.50
2018-12-26T04:01:49.789Z,45.20
2018-12-26T04:04:18.441Z,43.20
2018-12-26T04:06:47.267Z,44.87
2018-12-26T04:09:15.773Z,38.40
2018-12-26T04:11:44.737Z,48.83
2018-12-26T04:14:13.629Z,49.00
2018-12-26T04:16:43.065Z,48.77
2018-12-26T04:19:12.133Z,43.90
2018-12-26T04:21:41.621Z,43.60
2018-12-26T04:24:10.782Z,42.70
2018-12-26T04:26:39.522Z,40.47
2018-12-26T04:29:08.399Z,44.07
2018-12-26T04:31:39.158Z,43.03
2018-12-26T04:34:07.545Z,46.13
2018-12-26T04:36:39.106Z,49.60
2018-12-26T04:39:07.982Z,46.40
2018-12-26T04:41:39.946Z,43.93
2018-12-26T04:44:10.393Z,43.90
2018-12-26T04:46:38.995Z,45.67
2018-12-26T04:49:07.695Z,43.90
2018-12-26T04:51:36.624Z,40.90
2018-12-26T04:54:05.652Z,43.90
2018-12-26T04:56:34.561Z,42.10
2018-12-26T04:59:03.221Z,47.57
2018-12-26T05:01:34.350Z,43.20
2018-12-26T05:04:02.961Z,46.53
2018-12-26T05:06:32.221Z,42.73
2018-12-26T05:09:01.289Z,42.80
2018-12-26T05:11:30.580Z,41.60
2018-12-26T05:13:59.496Z,44.67
2018-12-26T05:16:28.521Z,42.90
2018-12-26T05:18:57.367Z,42.07
2018-12-26T05:21:27.711Z,39.30
2018-12-26T05:23:56.545Z,44.63
2018-12-26T05:26:25.397Z,41.20
2018-12-26T05:28:54.056Z,42.13
2018-12-26T05:31:22.752Z,43.20
2018-12-26T05:33:52.160Z,45.43
2018-12-26T05:36:20.961Z,41.50
2018-12-26T05:38:50.072Z,45.17
2018-12-26T05:41:19.004Z,40.43
2018-12-26T05:43:48.151Z,38.10
2018-12-26T05:46:17.040Z,41.43
2018-12-26T05:48:46.088Z,44.30
2018-12-26T05:51:15.324Z,42.17
2018-12-26T05:53:44.247Z,47.57
2018-12-26T05:56:13.227Z,43.53
2018-12-26T05:58:42.264Z,40.10
2018-12-26T06:01:11.558Z,40.57
2018-12-26T06:03:42.181Z,42.53
2018-12-26T06:06:10.667Z,44.87
2018-12-26T06:08:39.184Z,44.73
2018-12-26T06:11:07.747Z,46.30
2018-12-26T06:13:36.612Z,41.37
2018-12-26T06:16:05.348Z,40.20
2018-12-26T06:18:33.966Z,43.47
2018-12-26T06:21:02.440Z,41.87
2018-12-26T06:23:31.309Z,42.73
2018-12-26T06:25:59.786Z,41.60
2018-12-26T06:28:28.275Z,40.33
2018-12-26T06:30:57.049Z,45.00
2018-12-26T06:33:25.514Z,41.10
2018-12-26T06:35:54.254Z,41.73
2018-12-26T06:38:23.020Z,42.03
2018-12-26T06:40:51.854Z,38.10
2018-12-26T06:43:20.707Z,40.47
2018-12-26T06:45:49.885Z,37.63
2018-12-26T06:48:19.076Z,42.20
2018-12-26T06:50:47.959Z,41.07
2018-12-26T06:53:17.307Z,42.60
2018-12-26T06:55:46.304Z,39.53
2018-12-26T06:58:15.186Z,49.53
2018-12-26T07:00:44.280Z,41.73
2018-12-26T07:03:13.210Z,41.60
2018-12-26T07:05:42.840Z,40.43
2018-12-26T07:08:12.381Z,41.60
2018-12-26T07:10:43.919Z,44.17
2018-12-26T07:13:13.000Z,43.23
2018-12-26T07:15:42.143Z,39.53
2018-12-26T07:18:10.986Z,41.43
2018-12-26T07:20:39.596Z,42.97
2018-12-26T07:23:08.095Z,41.07
2018-12-26T07:25:36.546Z,42.30
2018-12-26T07:28:09.258Z,37.33
2018-12-26T07:30:35.170Z,39.77
2018-12-26T07:33:03.603Z,43.20
2018-12-26T07:35:32.391Z,47.67
2018-12-26T07:38:00.842Z,43.23
2018-12-26T07:40:29.648Z,39.00
2018-12-26T07:42:58.121Z,43.30
2018-12-26T07:45:26.602Z,39.00
2018-12-26T07:47:55.053Z,46.00
2018-12-26T07:50:23.510Z,42.57
2018-12-26T07:52:52.242Z,44.87
2018-12-26T07:55:20.797Z,38.03
2018-12-26T07:57:49.303Z,40.60
2018-12-26T08:00:17.741Z,44.63
2018-12-26T08:02:46.179Z,43.37
2018-12-26T08:05:14.648Z,40.17
2018-12-26T08:07:43.188Z,41.90
2018-12-26T08:10:11.656Z,47.43
2018-12-26T08:12:40.112Z,41.37
2018-12-26T08:15:14.426Z,40.50
2018-12-26T08:17:44.503Z,47.10
2018-12-26T08:20:13.333Z,42.53
2018-12-26T08:22:41.836Z,44.03
2018-12-26T08:25:10.283Z,41.73
2018-12-26T08:27:38.747Z,38.23
2018-12-26T08:30:07.564Z,44.97
2018-12-26T08:32:36.041Z,39.93
2018-12-26T08:35:04.907Z,42.73
2018-12-26T08:37:33.662Z,39.37
2018-12-26T08:40:02.507Z,41.80
2018-12-26T08:42:31.067Z,36.60
2018-12-26T08:44:59.795Z,37.77
2018-12-26T08:47:28.541Z,38.90
2018-12-26T08:49:57.305Z,39.63
2018-12-26T08:52:26.103Z,41.40
2018-12-26T08:54:54.662Z,40.67
2018-12-26T08:57:24.007Z,36.63
2018-12-26T08:59:52.527Z,39.77
2018-12-26T09:02:21.298Z,35.83
2018-12-26T09:04:49.724Z,40.80
2018-12-26T09:07:18.175Z,44.03
2018-12-26T09:09:46.647Z,38.87
2018-12-26T09:12:15.099Z,37.57
2018-12-26T09:14:43.580Z,44.70
2018-12-26T09:17:12.026Z,39.40
2018-12-26T09:19:40.768Z,39.90
2018-12-26T09:22:09.284Z,42.20
2018-12-26T09:24:38.127Z,37.90
2018-12-26T09:27:07.717Z,38.37
2018-12-26T09:29:36.168Z,38.80
2018-12-26T09:32:04.700Z,38.90
2018-12-26T09:34:33.173Z,41.60
2018-12-26T09:37:01.626Z,38.47
2018-12-26T09:39:30.348Z,38.80
2018-12-26T09:41:59.053Z,38.77
2018-12-26T09:44:27.511Z,38.40
2018-12-26T09:46:55.947Z,37.57
2018-12-26T09:49:24.727Z,35.90
2018-12-26T09:51:53.685Z,38.87
2018-12-26T09:54:22.862Z,45.97
2018-12-26T09:56:51.595Z,46.87
2018-12-26T09:59:20.095Z,39.97
2018-12-26T10:01:48.728Z,41.13
2018-12-26T10:04:17.207Z,41.17
2018-12-26T10:06:45.939Z,36.90
2018-12-26T10:09:14.631Z,35.33
2018-12-26T10:11:43.083Z,40.93
2018-12-26T10:14:11.875Z,41.07
2018-12-26T10:16:40.631Z,37.80
2018-12-26T10:19:09.372Z,38.50
2018-12-26T10:21:37.829Z,38.20
2018-12-26T10:24:06.535Z,38.57
2018-12-26T10:26:35.060Z,40.00
2018-12-26T10:29:03.755Z,36.57
2018-12-26T10:31:32.228Z,34.67
2018-12-26T10:34:01.027Z,37.87
2018-12-26T10:36:29.745Z,37.90
2018-12-26T10:38:58.179Z,39.30
2018-12-26T10:41:26.900Z,38.33
2018-12-26T10:43:55.591Z,42.70
2018-12-26T10:46:24.034Z,41.77
2018-12-26T10:48:52.455Z,37.10
2018-12-26T10:51:21.225Z,41.00
2018-12-26T10:53:49.666Z,33.47
2018-12-26T10:56:18.100Z,42.80
2018-12-26T10:58:46.526Z,45.97
2018-12-26T11:01:14.977Z,37.87
2018-12-26T11:03:43.672Z,38.20
2018-12-26T11:06:12.439Z,38.53
2018-12-26T11:08:41.139Z,37.07
2018-12-26T11:11:09.695Z,34.80
2018-12-26T11:13:38.403Z,39.83
2018-12-26T11:16:07.302Z,41.40
2018-12-26T11:18:35.726Z,39.47
2018-12-26T11:21:04.234Z,35.87
2018-12-26T11:23:32.951Z,34.80
2018-12-26T11:26:01.653Z,35.50
2018-12-26T11:28:30.395Z,36.67
2018-12-26T11:30:58.822Z,37.00
2018-12-26T11:33:27.594Z,36.40
2018-12-26T11:35:56.284Z,36.30
2018-12-26T11:38:25.047Z,38.67
2018-12-26T11:40:53.821Z,37.57
2018-12-26T11:43:22.271Z,37.03
2018-12-26T11:45:51.001Z,44.57
2018-12-26T11:48:19.715Z,39.40
2018-12-26T11:50:48.476Z,39.13
2018-12-26T11:53:17.775Z,34.90
2018-12-26T11:55:47.120Z,36.47
2018-12-26T11:58:16.309Z,37.27
2018-12-26T12:00:45.194Z,33.43
2018-12-26T12:03:13.998Z,34.97
2018-12-26T12:05:42.770Z,38.00
2018-12-26T12:08:11.436Z,40.10
2018-12-26T12:10:39.885Z,37.37
2018-12-26T12:13:08.383Z,33.13
2018-12-26T12:15:36.842Z,36.33
2018-12-26T12:18:05.392Z,38.57
2018-12-26T12:20:33.910Z,36.17
2018-12-26T12:23:02.355Z,40.30
2018-12-26T12:25:31.146Z,34.40
2018-12-26T12:27:59.858Z,28.03
2018-12-26T12:30:28.632Z,31.67
2018-12-26T12:32:57.828Z,40.10
2018-12-26T12:35:27.120Z,34.73
2018-12-26T12:37:56.185Z,33.77
2018-12-26T12:40:25.150Z,38.73
2018-12-26T12:42:53.675Z,33.80
2018-12-26T12:45:22.509Z,40.33
2018-12-26T12:47:51.140Z,36.13
2018-12-26T12:50:19.915Z,33.47
2018-12-26T12:52:48.382Z,36.77
2018-12-26T12:55:17.137Z,36.80
2018-12-26T12:57:45.717Z,33.27
2018-12-26T13:00:14.247Z,31.43
2018-12-26T13:02:43.188Z,33.73
2018-12-26T13:05:11.723Z,33.07
2018-12-26T13:07:40.477Z,34.27
2018-12-26T13:10:08.920Z,33.70
2018-12-26T13:12:37.351Z,33.50
2018-12-26T13:15:06.063Z,34.40
2018-12-26T13:17:34.495Z,37.57
2018-12-26T13:20:02.950Z,31.17
2018-12-26T13:22:31.383Z,36.83
2018-12-26T13:25:00.213Z,32.70
2018-12-26T13:27:28.651Z,29.47
2018-12-26T13:29:57.175Z,30.90
2018-12-26T13:32:25.626Z,30.03
2018-12-26T13:34:54.365Z,32.70
2018-12-26T13:37:22.824Z,29.07
2018-12-26T13:39:51.274Z,35.50
2018-12-26T13:42:19.741Z,28.93
2018-12-26T13:44:48.182Z,29.50
2018-12-26T13:47:16.695Z,30.50
2018-12-26T13:49:45.147Z,32.43
2018-12-26T13:52:13.932Z,29.37
2018-12-26T13:54:44.829Z,34.67
2018-12-26T13:57:13.301Z,31.07
2018-12-26T13:59:42.118Z,31.80
2018-12-26T14:02:10.948Z,30.80
2018-12-26T14:04:39.515Z,38.30
2018-12-26T14:07:08.297Z,34.70
2018-12-26T14:09:37.060Z,32.33
2018-12-26T14:12:05.829Z,31.23
2018-12-26T14:14:34.278Z,38.17
2018-12-26T14:17:03.067Z,36.83
2018-12-26T14:19:31.566Z,32.20
2018-12-26T14:22:00.048Z,32.90
2018-12-26T14:24:28.588Z,34.10
2018-12-26T14:26:57.063Z,34.37
2018-12-26T14:29:25.560Z,31.33
2018-12-26T14:31:54.117Z,33.60
2018-12-26T14:34:22.873Z,29.50
2018-12-26T14:36:51.404Z,34.70
2018-12-26T14:39:19.952Z,32.40
2018-12-26T14:41:48.400Z,34.37
2018-12-26T14:44:17.272Z,33.73
2018-12-26T14:46:46.321Z,31.53
2018-12-26T14:49:15.214Z,33.63
2018-12-26T14:51:43.957Z,39.33
2018-12-26T14:54:12.756Z,39.77
2018-12-26T14:56:41.237Z,40.47
2018-12-26T14:59:09.689Z,35.70
2018-12-26T15:01:38.448Z,34.70
2018-12-26T15:04:07.336Z,31.93
2018-12-26T15:06:35.775Z,34.20
2018-12-26T15:09:06.519Z,34.00
2018-12-26T15:11:35.284Z,33.90
2018-12-26T15:14:03.749Z,36.73
2018-12-26T15:16:32.475Z,31.73
2018-12-26T15:19:17.600Z,35.27
2018-12-26T15:21:46.030Z,33.57
2018-12-26T15:24:14.476Z,31.97
2018-12-26T15:26:43.232Z,34.17
2018-12-26T15:29:11.677Z,31.97
2018-12-26T15:31:40.419Z,31.50
2018-12-26T15:34:08.909Z,32.23
2018-12-26T15:36:37.675Z,35.77
2018-12-26T15:39:08.577Z,36.63
2018-12-26T15:41:37.387Z,31.17
2018-12-26T15:44:05.850Z,31.83
2018-12-26T15:46:34.299Z,33.50
2018-12-26T15:49:02.852Z,28.03
2018-12-26T15:51:31.330Z,30.40
2018-12-26T15:53:59.949Z,31.03
2018-12-26T15:56:28.519Z,35.00
2018-12-26T15:58:57.098Z,31.73
2018-12-26T16:01:26.109Z,33.60
2018-12-26T16:03:54.784Z,31.97
2018-12-26T16:06:23.293Z,32.33
2018-12-26T16:08:51.755Z,34.03
2018-12-26T16:11:20.607Z,31.27
2018-12-26T16:13:50.617Z,30.33
2018-12-26T16:16:19.106Z,30.20
2018-12-26T16:18:47.860Z,31.47
2018-12-26T16:21:16.679Z,31.20
2018-12-26T16:23:45.489Z,34.63
2018-12-26T16:26:14.289Z,34.40
2018-12-26T16:28:42.785Z,51.63
2018-12-26T16:31:11.781Z,34.27
2018-12-26T16:33:40.264Z,29.40
2018-12-26T16:36:08.743Z,33.27
2018-12-26T16:38:37.507Z,30.37
2018-12-26T16:41:06.051Z,30.50
2018-12-26T16:43:34.581Z,31.93
2018-12-26T16:46:03.123Z,34.07
2018-12-26T16:48:31.989Z,31.50
2018-12-26T16:51:00.829Z,31.87
2018-12-26T16:53:29.607Z,34.60
2018-12-26T16:55:58.074Z,32.10
2018-12-26T16:58:26.614Z,33.47
2018-12-26T17:00:55.418Z,34.87
2018-12-26T17:03:24.268Z,32.03
2018-12-26T17:05:53.074Z,32.70
2018-12-26T17:08:21.947Z,31.50
2018-12-26T17:10:50.767Z,31.77
2018-12-26T17:13:19.246Z,28.90
2018-12-26T17:15:47.747Z,27.33
2018-12-26T17:18:16.228Z,30.07
2018-12-26T17:20:45.055Z,27.10
2018-12-26T17:23:13.658Z,29.33
2018-12-26T17:25:42.417Z,29.87
2018-12-26T17:28:11.710Z,33.77
2018-12-26T17:30:40.536Z,32.67
2018-12-26T17:33:09.027Z,35.30
2018-12-26T17:35:37.790Z,35.20
2018-12-26T17:38:06.327Z,30.57
2018-12-26T17:40:35.204Z,29.93
2018-12-26T17:43:03.791Z,27.27
2018-12-26T17:45:32.408Z,30.77
2018-12-26T17:48:00.934Z,31.47
2018-12-26T17:50:44.379Z,31.50
2018-12-26T17:53:15.954Z,31.97
2018-12-26T17:56:08.112Z,31.80
2018-12-26T17:58:39.741Z,31.53
2018-12-26T18:01:36.557Z,33.03
2018-12-26T18:04:05.047Z,29.80
2018-12-26T18:06:33.892Z,27.03
2018-12-26T18:09:02.773Z,31.37
2018-12-26T18:11:31.339Z,28.90
2018-12-26T18:13:59.874Z,29.90
2018-12-26T18:16:28.406Z,32.20
2018-12-26T18:18:57.266Z,31.23
2018-12-26T18:21:26.592Z,31.00
2018-12-26T18:23:55.411Z,33.47
2018-12-26T18:26:24.587Z,29.90
2018-12-26T18:28:53.347Z,32.37
2018-12-26T18:31:22.389Z,30.03
2018-12-26T18:33:54.348Z,32.80
2018-12-26T18:36:23.188Z,29.90
2018-12-26T18:38:52.161Z,26.87
2018-12-26T18:41:21.021Z,30.67
2018-12-26T18:43:49.576Z,32.20
2018-12-26T18:46:18.186Z,34.80
2018-12-26T18:48:47.061Z,30.57
2018-12-26T18:51:15.503Z,31.60
2018-12-26T18:53:44.018Z,32.50
2018-12-26T18:56:12.542Z,36.97
2018-12-26T18:58:41.383Z,33.73
2018-12-26T19:01:09.840Z,35.83
2018-12-26T19:03:38.316Z,28.90
2018-12-26T19:06:07.087Z,37.20
2018-12-26T19:08:35.540Z,37.57
2018-12-26T19:11:04.060Z,36.37
2018-12-26T19:13:32.519Z,31.73
2018-12-26T19:16:00.976Z,34.53
2018-12-26T19:18:29.709Z,35.50
2018-12-26T19:20:58.182Z,34.87
2018-12-26T19:23:26.630Z,28.53
2018-12-26T19:25:55.446Z,32.47
2018-12-26T19:28:23.976Z,33.43
2018-12-26T19:30:52.437Z,28.60
2018-12-26T19:33:20.887Z,34.87
2018-12-26T19:35:49.344Z,31.70
2018-12-26T19:38:18.150Z,37.17
2018-12-26T19:40:46.673Z,35.33
2018-12-26T19:43:15.699Z,34.97
2018-12-26T19:45:44.736Z,36.30
2018-12-26T19:48:13.476Z,32.70
2018-12-26T19:50:42.020Z,31.77
2018-12-26T19:53:10.648Z,34.27
2018-12-26T19:55:39.486Z,36.43
2018-12-26T19:58:08.031Z,30.40
2018-12-26T20:00:36.993Z,29.37
2018-12-26T20:03:05.553Z,33.07
2018-12-26T20:05:34.415Z,37.90
2018-12-26T20:08:03.477Z,36.90
2018-12-26T20:10:32.200Z,37.10
2018-12-26T20:13:01.396Z,38.50
2018-12-26T20:15:29.944Z,36.53
2018-12-26T20:17:58.995Z,31.90
2018-12-26T20:20:27.578Z,37.43
2018-12-26T20:22:56.168Z,37.00
2018-12-26T20:25:25.065Z,38.30
2018-12-26T20:27:53.848Z,46.03
2018-12-26T20:30:22.655Z,42.43
2018-12-26T20:32:51.115Z,39.00
2018-12-26T20:35:19.601Z,42.90
2018-12-26T20:37:48.437Z,39.77
2018-12-26T20:40:16.948Z,35.07
2018-12-26T20:42:45.739Z,34.30
2018-12-26T20:45:14.756Z,40.93
2018-12-26T20:47:43.375Z,35.20
2018-12-26T20:50:12.007Z,35.80
2018-12-26T20:52:40.638Z,40.93
2018-12-26T20:55:09.659Z,38.97
2018-12-26T20:57:38.525Z,34.07
2018-12-26T21:00:09.968Z,33.83
2018-12-26T21:02:39.220Z,32.30
2018-12-26T21:05:08.602Z,38.53
2018-12-26T21:07:37.806Z,37.03
2018-12-26T21:10:08.527Z,38.83
2018-12-26T21:12:37.721Z,38.80
2018-12-26T21:15:07.262Z,38.40
2018-12-26T21:17:36.099Z,40.90
2018-12-26T21:20:07.092Z,38.90
2018-12-26T21:22:35.846Z,38.97
2018-12-26T21:25:06.093Z,37.77
2018-12-26T21:27:34.865Z,37.23
2018-12-26T21:30:05.836Z,40.57
2018-12-26T21:32:35.151Z,34.97
2018-12-26T21:35:04.828Z,38.27
2018-12-26T21:37:33.698Z,40.50
2018-12-26T21:40:02.387Z,36.20
2018-12-26T21:42:31.519Z,39.23
2018-12-26T21:45:00.435Z,55.17
2018-12-26T21:47:29.566Z,37.60
2018-12-26T21:49:58.860Z,38.37
2018-12-26T21:52:28.111Z,43.83
2018-12-26T21:54:57.012Z,42.60
2018-12-26T21:57:25.799Z,40.27
2018-12-26T21:59:55.147Z,34.97
2018-12-26T22:02:24.312Z,37.67
2018-12-26T22:04:53.444Z,36.63
2018-12-26T22:07:22.536Z,35.03
2018-12-26T22:09:51.573Z,37.47
2018-12-26T22:12:20.265Z,32.63
2018-12-26T22:14:49.058Z,37.60
2018-12-26T22:17:17.766Z,36.03
2018-12-26T22:19:46.624Z,35.17
2018-12-26T22:22:15.767Z,34.97
2018-12-26T22:24:44.970Z,34.90
2018-12-26T22:27:14.206Z,33.90
2018-12-26T22:29:43.443Z,29.40
2018-12-26T22:32:14.917Z,39.10
2018-12-26T22:34:43.769Z,36.13
2018-12-26T22:37:12.533Z,38.53
2018-12-26T22:39:41.527Z,35.33
2018-12-26T22:42:10.644Z,39.03
2018-12-26T22:44:39.753Z,37.93
2018-12-26T22:47:08.749Z,38.53
2018-12-26T22:49:37.831Z,55.00
2018-12-26T22:52:06.304Z,53.83
2018-12-26T22:54:35.366Z,40.17
2018-12-26T22:57:04.603Z,39.97
2018-12-26T22:59:33.221Z,36.87
2018-12-26T23:02:01.920Z,39.80
2018-12-26T23:04:31.037Z,39.40
2018-12-26T23:07:00.194Z,34.40
2018-12-26T23:09:28.916Z,39.50
2018-12-26T23:11:57.711Z,38.23
2018-12-26T23:14:26.476Z,41.30
2018-12-26T23:16:55.344Z,40.23
2018-12-26T23:19:24.451Z,35.53
2018-12-26T23:21:53.552Z,38.00
2018-12-26T23:24:22.203Z,37.70
2018-12-26T23:26:51.123Z,36.80
2018-12-26T23:29:19.840Z,45.83
2018-12-26T23:31:48.964Z,44.20
2018-12-26T23:34:17.630Z,47.67
2018-12-26T23:36:46.370Z,60.60
2018-12-26T23:39:15.183Z,56.33
2018-12-26T23:41:43.859Z,43.43
2018-12-26T23:44:12.918Z,39.27
2018-12-26T23:46:41.794Z,43.67
2018-12-26T23:49:10.598Z,39.43
2018-12-26T23:51:39.537Z,35.20
2018-12-26T23:54:08.637Z,39.17
2018-12-26T23:56:37.319Z,39.87
2018-12-26T23:59:06.075Z,33.83
